Time;durP1;ratioP1;P1;durP2;ratioP2;P2;SDS_P1;SDS_P2;PMS_P1;PMS_P2;Temp;Humidity;BMP_temperature;BMP_pressure;BME280_temperature;BME280_humidity;BME280_pressure;Samples;Min_cycle;Max_cycle;Signal;HPM_P1;HPM_P2
2023/01/22 00:02:21;;;;;;;30.13;17.83;;;;;;;;;;5044080;28;20185;-78
2023/01/22 00:04:47;;;;;;;30.47;17.87;;;;;;;;;;5039985;28;20201;-76
2023/01/22 00:07:14;;;;;;;24.10;16.03;;;;;;;;;;5039468;28;20181;-75
2023/01/22 00:09:41;;;;;;;24.50;16.20;;;;;;;;;;5038177;28;20181;-76
2023/01/22 00:12:07;;;;;;;27.67;17.48;;;;;;;;;;5044974;28;20573;-76
2023/01/22 00:14:33;;;;;;;24.77;18.27;;;;;;;;;;5048363;28;20427;-76
2023/01/22 00:17:00;;;;;;;24.60;16.87;;;;;;;;;;5050073;28;20447;-75
2023/01/22 00:19:26;;;;;;;21.60;14.60;;;;;;;;;;5042909;28;20200;-75
2023/01/22 00:21:52;;;;;;;25.83;16.67;;;;;;;;;;5049362;28;20213;-77
2023/01/22 00:24:18;;;;;;;26.43;16.33;;;;;;;;;;5052176;28;20205;-77
2023/01/22 00:26:44;;;;;;;26.93;16.53;;;;;;;;;;5042790;28;20181;-76
2023/01/22 00:29:11;;;;;;;25.13;16.53;;;;;;;;;;5051274;28;20946;-78
2023/01/22 00:31:37;;;;;;;25.13;15.83;;;;;;;;;;5046388;28;20165;-78
2023/01/22 00:34:04;;;;;;;23.97;15.53;;;;;;;;;;5062939;28;20240;-78
2023/01/22 00:36:30;;;;;;;27.27;16.77;;;;;;;;;;5031400;28;20315;-75
2023/01/22 00:38:56;;;;;;;25.20;15.47;;;;;;;;;;5046560;28;20178;-76
2023/01/22 00:41:23;;;;;;;25.20;16.43;;;;;;;;;;5044247;28;20276;-76
2023/01/22 00:43:49;;;;;;;25.03;16.23;;;;;;;;;;5045878;28;20200;-75
2023/01/22 00:46:16;;;;;;;22.80;15.27;;;;;;;;;;5042705;28;20198;-76
2023/01/22 00:48:48;;;;;;;24.33;15.50;;;;;;;;;;5048137;28;20694;-75
2023/01/22 00:51:14;;;;;;;24.97;15.63;;;;;;;;;;5043958;28;20327;-78
2023/01/22 00:53:42;;;;;;;26.77;15.13;;;;;;;;;;5043276;28;20713;-76
2023/01/22 00:56:09;;;;;;;25.50;15.30;;;;;;;;;;5042062;28;20258;-77
2023/01/22 00:58:35;;;;;;;25.43;15.93;;;;;;;;;;5046418;28;20186;-74
2023/01/22 01:01:02;;;;;;;26.30;15.90;;;;;;;;;;5049420;28;20177;-75
2023/01/22 01:03:31;;;;;;;25.43;14.60;;;;;;;;;;5049406;28;20213;-77
2023/01/22 01:06:06;;;;;;;24.30;14.30;;;;;;;;;;5053108;28;20251;-73
2023/01/22 01:08:34;;;;;;;25.63;15.83;;;;;;;;;;5045936;28;20205;-75
2023/01/22 01:11:01;;;;;;;21.93;14.97;;;;;;;;;;5042995;28;20753;-75
2023/01/22 01:13:28;;;;;;;25.63;15.27;;;;;;;;;;5052515;28;20280;-73
2023/01/22 01:15:58;;;;;;;24.50;14.87;;;;;;;;;;5050722;28;20178;-76
2023/01/22 01:18:24;;;;;;;22.00;13.97;;;;;;;;;;5052489;28;20272;-75
2023/01/22 01:20:54;;;;;;;22.23;14.17;;;;;;;;;;5040815;28;20830;-74
2023/01/22 01:23:20;;;;;;;19.53;13.17;;;;;;;;;;5045476;28;20225;-74
2023/01/22 01:25:46;;;;;;;22.57;13.70;;;;;;;;;;5044220;28;20264;-75
2023/01/22 01:28:13;;;;;;;26.77;16.17;;;;;;;;;;5042650;28;20177;-76
2023/01/22 01:30:39;;;;;;;24.47;15.50;;;;;;;;;;5048228;28;20265;-76
2023/01/22 01:33:05;;;;;;;26.60;15.50;;;;;;;;;;5042764;28;20256;-74
2023/01/22 01:35:31;;;;;;;21.93;14.50;;;;;;;;;;5042591;28;20192;-73
2023/01/22 01:37:57;;;;;;;22.77;14.53;;;;;;;;;;5034262;28;20213;-74
2023/01/22 01:40:24;;;;;;;26.93;15.57;;;;;;;;;;5043424;28;20774;-76
2023/01/22 01:42:51;;;;;;;22.57;14.10;;;;;;;;;;5028311;28;20294;-75
2023/01/22 01:45:23;;;;;;;26.00;16.60;;;;;;;;;;5047785;28;20695;-75
2023/01/22 01:47:52;;;;;;;21.30;14.53;;;;;;;;;;5042089;28;20201;-74
2023/01/22 01:50:20;;;;;;;23.77;14.53;;;;;;;;;;5040530;28;20190;-76
2023/01/22 01:52:46;;;;;;;24.13;14.80;;;;;;;;;;5026140;28;20213;-73
2023/01/22 01:55:13;;;;;;;24.00;15.47;;;;;;;;;;5044631;28;20215;-76
2023/01/22 01:57:40;;;;;;;22.70;14.33;;;;;;;;;;5039162;28;20174;-75
2023/01/22 02:00:09;;;;;;;22.40;14.23;;;;;;;;;;5029247;28;20331;-73
2023/01/22 02:02:40;;;;;;;22.37;14.30;;;;;;;;;;5050642;28;20190;-76
2023/01/22 02:05:07;;;;;;;25.17;14.43;;;;;;;;;;5040813;28;20206;-74
2023/01/22 02:07:34;;;;;;;22.70;14.27;;;;;;;;;;5047227;28;20177;-72
2023/01/22 02:10:03;;;;;;;20.13;13.73;;;;;;;;;;5048280;28;20166;-72
2023/01/22 02:12:30;;;;;;;24.87;15.00;;;;;;;;;;5041155;28;20185;-73
2023/01/22 02:14:57;;;;;;;22.37;14.40;;;;;;;;;;5041630;28;20751;-73
2023/01/22 02:17:23;;;;;;;24.17;13.93;;;;;;;;;;5043531;28;20182;-72
2023/01/22 02:19:50;;;;;;;21.83;14.10;;;;;;;;;;5027296;28;20248;-70
2023/01/22 02:22:21;;;;;;;20.87;13.70;;;;;;;;;;5041810;28;20185;-72
2023/01/22 02:24:48;;;;;;;18.83;12.80;;;;;;;;;;5035557;28;20213;-74
2023/01/22 02:27:14;;;;;;;20.97;13.73;;;;;;;;;;5033675;28;20190;-72
2023/01/22 02:29:41;;;;;;;23.13;14.77;;;;;;;;;;5027865;28;20174;-73
2023/01/22 02:32:10;;;;;;;24.10;14.90;;;;;;;;;;5027152;28;20182;-71
2023/01/22 02:34:37;;;;;;;27.20;15.43;;;;;;;;;;5027343;28;20218;-72
2023/01/22 02:37:03;;;;;;;26.03;14.53;;;;;;;;;;5043126;28;20189;-74
2023/01/22 02:39:30;;;;;;;21.23;13.77;;;;;;;;;;5029801;28;20181;-74
2023/01/22 02:41:58;;;;;;;19.87;12.47;;;;;;;;;;5044366;28;20212;-75
2023/01/22 02:44:24;;;;;;;21.23;13.17;;;;;;;;;;5042672;28;20243;-74
2023/01/22 02:46:50;;;;;;;19.37;12.77;;;;;;;;;;5024124;28;20190;-73
2023/01/22 02:49:16;;;;;;;19.73;12.43;;;;;;;;;;5030430;28;20176;-74
2023/01/22 02:51:43;;;;;;;22.27;13.50;;;;;;;;;;5040494;28;20197;-74
2023/01/22 02:54:11;;;;;;;19.57;12.93;;;;;;;;;;5038426;28;20206;-74
2023/01/22 02:56:37;;;;;;;18.20;12.23;;;;;;;;;;5049330;28;20268;-74
2023/01/22 02:59:04;;;;;;;25.97;15.13;;;;;;;;;;5047107;28;20158;-73
2023/01/22 03:01:30;;;;;;;24.23;13.63;;;;;;;;;;5027621;28;20171;-73
2023/01/22 03:04:00;;;;;;;19.97;12.53;;;;;;;;;;5041327;28;20209;-74
2023/01/22 03:06:27;;;;;;;18.30;11.40;;;;;;;;;;5029181;28;20264;-75
2023/01/22 03:08:58;;;;;;;21.47;12.87;;;;;;;;;;5043459;28;20699;-72
2023/01/22 03:11:25;;;;;;;18.83;12.27;;;;;;;;;;5042657;28;20182;-77
2023/01/22 03:22:17;;;;;;;16.93;11.20;;;;;;;;;;5035095;28;20678;-76
2023/01/22 03:24:49;;;;;;;18.17;11.73;;;;;;;;;;5039445;28;20292;-76
2023/01/22 03:27:15;;;;;;;19.70;12.37;;;;;;;;;;5025870;28;20190;-72
2023/01/22 03:29:42;;;;;;;15.60;11.23;;;;;;;;;;5040699;28;20272;-75
2023/01/22 03:32:09;;;;;;;16.07;10.50;;;;;;;;;;5038929;28;20702;-75
2023/01/22 03:34:36;;;;;;;17.00;10.90;;;;;;;;;;5026798;28;20263;-76
2023/01/22 03:37:05;;;;;;;15.57;11.13;;;;;;;;;;5042321;28;20179;-73
2023/01/22 03:39:32;;;;;;;16.50;10.40;;;;;;;;;;5040070;28;20181;-74
2023/01/22 03:41:58;;;;;;;13.93;10.00;;;;;;;;;;5041244;28;20591;-74
2023/01/22 03:44:25;;;;;;;14.87;10.00;;;;;;;;;;5039783;28;20224;-73
2023/01/22 03:46:52;;;;;;;14.87;10.60;;;;;;;;;;5019207;28;20178;-74
2023/01/22 03:49:19;;;;;;;16.47;10.53;;;;;;;;;;5043332;28;20197;-73
2023/01/22 03:51:47;;;;;;;12.63;8.80;;;;;;;;;;5042888;28;20174;-74
2023/01/22 03:54:14;;;;;;;16.40;10.83;;;;;;;;;;5050128;22;20233;-71
2023/01/22 03:56:41;;;;;;;14.90;9.87;;;;;;;;;;5040696;28;20178;-71
2023/01/22 03:59:16;;;;;;;13.30;9.23;;;;;;;;;;5040861;28;20189;-72
2023/01/22 04:01:43;;;;;;;13.47;9.33;;;;;;;;;;5038390;28;20742;-71
2023/01/22 04:04:09;;;;;;;14.03;9.50;;;;;;;;;;5032314;28;20210;-72
2023/01/22 04:06:35;;;;;;;14.03;9.67;;;;;;;;;;5018508;28;20182;-71
2023/01/22 04:09:03;;;;;;;12.67;8.93;;;;;;;;;;5016303;28;20564;-72
2023/01/22 04:11:37;;;;;;;15.73;9.07;;;;;;;;;;4990315;28;20198;-72
2023/01/22 04:14:07;;;;;;;13.00;8.93;;;;;;;;;;5007086;28;20202;-71
2023/01/22 04:16:35;;;;;;;12.70;9.03;;;;;;;;;;5016727;28;20268;-72
2023/01/22 04:19:07;;;;;;;11.90;8.77;;;;;;;;;;5016991;28;20295;-71
2023/01/22 04:22:04;;;;;;;11.70;8.60;;;;;;;;;;5005182;28;20197;-72
2023/01/22 04:24:31;;;;;;;13.57;8.97;;;;;;;;;;5018047;28;20214;-72
2023/01/22 04:26:59;;;;;;;14.77;9.60;;;;;;;;;;5024910;28;20206;-71
2023/01/22 04:29:25;;;;;;;13.30;9.23;;;;;;;;;;5023219;28;20609;-72
2023/01/22 04:31:51;;;;;;;12.33;8.70;;;;;;;;;;5019415;28;20684;-72
2023/01/22 04:34:17;;;;;;;11.93;8.83;;;;;;;;;;5022648;28;20255;-72
2023/01/22 04:36:57;;;;;;;11.20;8.27;;;;;;;;;;5022133;28;20244;-72
2023/01/22 04:39:25;;;;;;;11.30;8.87;;;;;;;;;;5009572;28;20187;-72
2023/01/22 04:41:51;;;;;;;11.40;7.97;;;;;;;;;;5025024;28;20745;-72
2023/01/22 04:44:18;;;;;;;10.20;7.63;;;;;;;;;;5025114;28;20585;-72
2023/01/22 04:46:44;;;;;;;11.47;7.90;;;;;;;;;;5024786;28;20178;-72
2023/01/22 04:49:12;;;;;;;10.90;7.93;;;;;;;;;;5009290;28;20206;-72
2023/01/22 04:51:39;;;;;;;11.20;8.00;;;;;;;;;;5017513;28;20599;-72
2023/01/22 04:54:05;;;;;;;8.80;6.97;;;;;;;;;;5018401;28;20221;-72
2023/01/22 04:56:31;;;;;;;11.20;8.33;;;;;;;;;;5011262;28;20240;-72
2023/01/22 04:58:58;;;;;;;12.03;7.73;;;;;;;;;;5030198;28;20375;-71
2023/01/22 05:01:25;;;;;;;10.43;7.70;;;;;;;;;;5028695;28;20603;-72
2023/01/22 05:03:51;;;;;;;11.97;8.60;;;;;;;;;;5028741;28;20247;-72
2023/01/22 05:06:17;;;;;;;11.90;8.13;;;;;;;;;;5012207;28;20222;-71
2023/01/22 05:08:43;;;;;;;12.13;8.23;;;;;;;;;;5028332;28;20651;-72
2023/01/22 05:11:10;;;;;;;10.47;7.00;;;;;;;;;;5011791;28;20202;-72
2023/01/22 05:13:45;;;;;;;10.67;7.60;;;;;;;;;;5014561;28;20216;-72
2023/01/22 05:16:12;;;;;;;10.97;7.43;;;;;;;;;;5028108;28;20218;-72
2023/01/22 05:18:38;;;;;;;9.60;7.43;;;;;;;;;;5018779;28;20264;-72
2023/01/22 05:21:04;;;;;;;9.73;7.43;;;;;;;;;;5003900;28;20205;-72
2023/01/22 05:23:32;;;;;;;9.90;7.20;;;;;;;;;;5008018;28;20219;-72
2023/01/22 05:25:58;;;;;;;11.07;8.23;;;;;;;;;;5020924;28;20225;-72
2023/01/22 05:28:37;;;;;;;9.40;7.43;;;;;;;;;;5006480;28;20175;-72
2023/01/22 05:31:09;;;;;;;10.77;7.60;;;;;;;;;;5002512;28;20240;-72
2023/01/22 05:33:48;;;;;;;10.13;7.87;;;;;;;;;;5018053;28;20213;-72
2023/01/22 05:36:15;;;;;;;9.80;7.80;;;;;;;;;;5018510;28;20186;-72
2023/01/22 05:38:42;;;;;;;8.63;6.63;;;;;;;;;;5020761;28;20201;-72
2023/01/22 05:41:09;;;;;;;9.67;6.80;;;;;;;;;;5017740;28;20272;-72
2023/01/22 05:43:38;;;;;;;8.37;6.57;;;;;;;;;;5035415;28;20207;-72
2023/01/22 05:46:06;;;;;;;8.23;5.97;;;;;;;;;;5018320;28;20199;-72
2023/01/22 05:48:50;;;;;;;7.67;6.07;;;;;;;;;;5017741;28;20593;-72
2023/01/22 05:51:20;;;;;;;7.63;5.80;;;;;;;;;;5018410;28;20235;-72
2023/01/22 05:53:46;;;;;;;8.93;7.13;;;;;;;;;;5018189;28;20214;-72
2023/01/22 05:56:14;;;;;;;7.73;6.20;;;;;;;;;;5017332;28;20183;-72
2023/01/22 05:58:44;;;;;;;9.20;7.00;;;;;;;;;;5018742;28;20267;-72
2023/01/22 06:01:11;;;;;;;7.90;6.30;;;;;;;;;;5000246;28;20314;-72
2023/01/22 06:03:44;;;;;;;9.53;6.90;;;;;;;;;;5005562;28;20291;-72
2023/01/22 06:06:13;;;;;;;8.53;6.33;;;;;;;;;;5002215;28;20304;-72
2023/01/22 06:08:40;;;;;;;8.73;7.30;;;;;;;;;;5020556;28;20183;-72
2023/01/22 06:11:16;;;;;;;8.00;6.80;;;;;;;;;;5017473;28;20669;-72
2023/01/22 06:13:46;;;;;;;9.20;6.73;;;;;;;;;;5021266;28;20237;-72
2023/01/22 06:16:17;;;;;;;7.30;5.93;;;;;;;;;;5000835;28;20669;-72
2023/01/22 06:19:05;;;;;;;7.10;6.00;;;;;;;;;;5002078;28;20194;-72
2023/01/22 06:21:39;;;;;;;8.03;6.60;;;;;;;;;;5025622;28;20619;-72
2023/01/22 06:24:07;;;;;;;7.80;6.47;;;;;;;;;;5022748;28;20210;-72
2023/01/22 06:26:33;;;;;;;9.40;6.67;;;;;;;;;;5022672;28;20206;-72
2023/01/22 06:29:00;;;;;;;7.47;6.20;;;;;;;;;;5019731;28;20590;-71
2023/01/22 06:31:27;;;;;;;9.20;6.83;;;;;;;;;;5020494;28;20186;-72
2023/01/22 06:33:55;;;;;;;7.53;6.03;;;;;;;;;;5020759;28;20210;-72
2023/01/22 06:36:21;;;;;;;8.03;6.00;;;;;;;;;;5022749;28;20198;-72
2023/01/22 06:38:47;;;;;;;7.70;5.93;;;;;;;;;;5021851;28;20215;-72
2023/01/22 06:41:19;;;;;;;10.27;7.30;;;;;;;;;;5027681;28;20179;-72
2023/01/22 06:43:47;;;;;;;9.80;6.37;;;;;;;;;;5018253;28;20708;-72
2023/01/22 06:46:13;;;;;;;9.23;6.40;;;;;;;;;;5007484;28;20580;-72
2023/01/22 06:48:54;;;;;;;9.20;6.97;;;;;;;;;;5019716;28;20178;-72
2023/01/22 06:51:21;;;;;;;9.67;7.60;;;;;;;;;;5020006;28;20227;-72
2023/01/22 06:53:47;;;;;;;8.50;6.50;;;;;;;;;;5016544;28;20218;-72
2023/01/22 06:56:13;;;;;;;10.13;8.10;;;;;;;;;;5003202;28;20210;-72
2023/01/22 06:58:40;;;;;;;10.23;8.40;;;;;;;;;;5016257;28;20182;-72
2023/01/22 07:01:06;;;;;;;9.80;7.13;;;;;;;;;;5018523;28;20788;-72
2023/01/22 07:03:32;;;;;;;9.13;6.73;;;;;;;;;;5018975;28;20301;-72
2023/01/22 07:05:59;;;;;;;10.37;7.83;;;;;;;;;;5023861;28;20587;-74
2023/01/22 07:08:26;;;;;;;10.10;7.43;;;;;;;;;;5020459;28;20183;-73
2023/01/22 07:10:52;;;;;;;9.20;6.50;;;;;;;;;;5017475;28;20182;-74
2023/01/22 07:13:18;;;;;;;7.90;6.27;;;;;;;;;;5019487;28;20198;-73
2023/01/22 07:15:44;;;;;;;8.53;6.30;;;;;;;;;;5015657;28;20178;-74
2023/01/22 07:18:13;;;;;;;7.43;5.97;;;;;;;;;;5016900;28;20206;-73
2023/01/22 07:20:39;;;;;;;8.40;6.07;;;;;;;;;;5015103;28;20604;-73
2023/01/22 07:23:05;;;;;;;7.83;6.10;;;;;;;;;;5023242;28;20635;-73
2023/01/22 07:25:31;;;;;;;7.87;6.90;;;;;;;;;;5019600;28;20221;-73
2023/01/22 07:27:59;;;;;;;8.73;6.80;;;;;;;;;;5015394;28;20175;-73
2023/01/22 07:30:25;;;;;;;8.30;6.50;;;;;;;;;;5023960;28;20179;-73
2023/01/22 07:32:51;;;;;;;9.77;7.30;;;;;;;;;;5014690;28;20262;-73
2023/01/22 07:35:17;;;;;;;8.63;7.00;;;;;;;;;;5015156;28;20258;-74
2023/01/22 07:37:50;;;;;;;7.40;6.30;;;;;;;;;;5018270;28;20182;-74
2023/01/22 07:40:16;;;;;;;8.50;7.10;;;;;;;;;;5016267;28;20202;-73
2023/01/22 07:42:42;;;;;;;8.67;6.73;;;;;;;;;;5024343;28;20235;-74
2023/01/22 07:45:08;;;;;;;8.27;7.17;;;;;;;;;;5025457;28;20225;-73
2023/01/22 07:47:34;;;;;;;10.27;7.50;;;;;;;;;;5018967;28;20175;-73
2023/01/22 07:50:01;;;;;;;9.03;6.80;;;;;;;;;;5022408;28;20260;-75
2023/01/22 07:52:27;;;;;;;7.90;6.60;;;;;;;;;;5026814;28;20231;-75
2023/01/22 07:54:53;;;;;;;10.57;8.80;;;;;;;;;;5026987;28;20214;-77
2023/01/22 07:57:19;;;;;;;9.80;7.67;;;;;;;;;;5009424;28;20661;-79
2023/01/22 07:59:45;;;;;;;8.47;7.00;;;;;;;;;;5027618;28;20186;-78
2023/01/22 08:02:12;;;;;;;8.83;6.87;;;;;;;;;;5024274;28;20285;-78
2023/01/22 08:04:39;;;;;;;9.60;7.47;;;;;;;;;;5014392;28;20218;-79
2023/01/22 08:07:05;;;;;;;10.97;7.93;;;;;;;;;;5015767;28;20178;-77
2023/01/22 08:09:32;;;;;;;11.37;8.00;;;;;;;;;;5022848;28;20179;-76
2023/01/22 08:11:58;;;;;;;11.60;8.23;;;;;;;;;;5011589;28;20722;-76
2023/01/22 08:14:24;;;;;;;9.83;8.20;;;;;;;;;;5025827;28;20202;-76
2023/01/22 08:16:50;;;;;;;12.07;9.80;;;;;;;;;;5026753;28;20224;-76
2023/01/22 08:19:16;;;;;;;11.90;10.00;;;;;;;;;;5026656;28;20517;-76
2023/01/22 08:21:42;;;;;;;11.23;9.00;;;;;;;;;;5017151;28;20187;-76
2023/01/22 08:24:09;;;;;;;9.67;7.87;;;;;;;;;;5010647;28;20221;-76
2023/01/22 08:26:36;;;;;;;11.23;8.60;;;;;;;;;;5026381;28;20194;-76
2023/01/22 08:29:02;;;;;;;10.73;8.03;;;;;;;;;;5020813;28;20182;-76
2023/01/22 08:31:28;;;;;;;11.17;8.63;;;;;;;;;;5024513;28;20185;-76
2023/01/22 08:33:54;;;;;;;11.27;8.03;;;;;;;;;;5025353;28;20659;-76
2023/01/22 08:36:20;;;;;;;9.83;7.77;;;;;;;;;;5028703;28;20183;-76
2023/01/22 08:38:46;;;;;;;12.20;8.73;;;;;;;;;;5017697;28;20175;-76
2023/01/22 08:41:12;;;;;;;13.17;9.73;;;;;;;;;;5029434;28;20244;-77
2023/01/22 08:43:38;;;;;;;10.63;8.27;;;;;;;;;;5027074;28;20232;-76
2023/01/22 08:46:04;;;;;;;11.93;9.00;;;;;;;;;;5009479;28;20573;-75
2023/01/22 08:48:31;;;;;;;10.17;7.73;;;;;;;;;;5010278;28;20254;-76
2023/01/22 08:50:59;;;;;;;10.43;8.53;;;;;;;;;;5021433;28;20650;-76
2023/01/22 08:53:25;;;;;;;10.70;7.40;;;;;;;;;;5027722;28;20185;-76
2023/01/22 08:55:52;;;;;;;9.37;7.67;;;;;;;;;;5016458;28;20187;-76
2023/01/22 08:58:20;;;;;;;9.83;7.30;;;;;;;;;;5011779;28;20198;-76
2023/01/22 09:00:47;;;;;;;8.30;6.27;;;;;;;;;;5009670;28;20175;-76
2023/01/22 09:03:13;;;;;;;13.73;7.13;;;;;;;;;;5011104;28;20175;-76
2023/01/22 09:05:40;;;;;;;10.00;7.13;;;;;;;;;;5010740;28;20233;-75
2023/01/22 09:08:07;;;;;;;9.03;7.10;;;;;;;;;;5022914;28;20328;-75
2023/01/22 09:10:33;;;;;;;9.33;7.17;;;;;;;;;;5011226;28;20175;-75
2023/01/22 09:13:00;;;;;;;10.27;7.97;;;;;;;;;;5024581;28;20385;-76
2023/01/22 09:15:26;;;;;;;10.53;7.20;;;;;;;;;;5022047;28;20297;-75
2023/01/22 09:17:52;;;;;;;9.83;8.30;;;;;;;;;;5029863;28;20768;-76
2023/01/22 09:20:18;;;;;;;9.23;7.33;;;;;;;;;;5026893;28;20286;-75
2023/01/22 09:22:45;;;;;;;7.83;7.03;;;;;;;;;;5016074;28;20183;-75
2023/01/22 09:25:11;;;;;;;7.77;6.43;;;;;;;;;;5024051;28;20697;-75
2023/01/22 09:27:37;;;;;;;9.97;5.93;;;;;;;;;;5012408;28;20183;-76
2023/01/22 09:30:04;;;;;;;8.07;6.87;;;;;;;;;;5020690;28;20673;-75
2023/01/22 09:32:30;;;;;;;7.70;6.40;;;;;;;;;;5024659;28;20202;-76
2023/01/22 09:34:56;;;;;;;7.77;6.30;;;;;;;;;;5015344;28;20398;-75
2023/01/22 09:37:24;;;;;;;8.47;5.97;;;;;;;;;;5008765;28;20674;-75
2023/01/22 09:39:50;;;;;;;8.00;6.80;;;;;;;;;;5010292;28;20266;-76
2023/01/22 09:42:36;;;;;;;8.13;6.53;;;;;;;;;;5023645;28;20190;-75
2023/01/22 09:45:03;;;;;;;8.83;7.30;;;;;;;;;;5028860;28;20210;-75
2023/01/22 09:47:40;;;;;;;8.13;6.90;;;;;;;;;;5011046;28;20209;-75
2023/01/22 09:50:26;;;;;;;8.13;6.90;;;;;;;;;;5010206;28;20182;-75
2023/01/22 09:52:54;;;;;;;10.77;8.60;;;;;;;;;;5010042;28;20183;-75
2023/01/22 09:55:21;;;;;;;10.07;8.30;;;;;;;;;;5014191;28;20264;-75
2023/01/22 09:57:49;;;;;;;9.17;7.60;;;;;;;;;;5015140;28;20195;-75
2023/01/22 10:00:16;;;;;;;8.57;7.57;;;;;;;;;;5019049;28;20191;-75
2023/01/22 10:02:53;;;;;;;10.37;8.60;;;;;;;;;;5014703;28;20199;-76
2023/01/22 10:05:30;;;;;;;9.87;8.00;;;;;;;;;;5019738;28;20272;-76
2023/01/22 10:07:59;;;;;;;10.13;8.17;;;;;;;;;;5015603;28;20658;-76
2023/01/22 10:10:26;;;;;;;8.03;6.97;;;;;;;;;;5028322;28;20174;-75
2023/01/22 10:12:55;;;;;;;9.13;7.33;;;;;;;;;;5011387;28;20463;-75
2023/01/22 10:15:22;;;;;;;11.03;7.70;;;;;;;;;;5029069;28;20238;-76
2023/01/22 10:17:48;;;;;;;7.83;6.70;;;;;;;;;;5028276;28;20228;-76
2023/01/22 10:20:17;;;;;;;6.90;6.17;;;;;;;;;;5020935;28;20647;-76
2023/01/22 10:22:43;;;;;;;6.43;5.70;;;;;;;;;;5017414;28;20223;-77
2023/01/22 10:25:14;;;;;;;6.60;5.90;;;;;;;;;;5010211;28;20211;-76
2023/01/22 10:27:40;;;;;;;7.43;6.40;;;;;;;;;;5012277;28;20182;-75
2023/01/22 10:30:21;;;;;;;7.40;6.20;;;;;;;;;;5027430;28;20197;-75
2023/01/22 10:32:57;;;;;;;6.27;5.53;;;;;;;;;;5020836;28;20186;-75
2023/01/22 10:35:24;;;;;;;7.63;6.50;;;;;;;;;;5021346;28;20257;-75
2023/01/22 10:37:51;;;;;;;7.00;6.30;;;;;;;;;;5026866;28;20182;-76
2023/01/22 10:40:20;;;;;;;9.53;7.30;;;;;;;;;;5025887;28;20222;-75
2023/01/22 10:42:48;;;;;;;8.90;6.90;;;;;;;;;;5018390;28;20194;-76
2023/01/22 10:45:15;;;;;;;7.90;6.90;;;;;;;;;;5019153;28;20788;-76
2023/01/22 10:47:42;;;;;;;9.30;6.97;;;;;;;;;;5008622;28;20593;-76
2023/01/22 10:50:15;;;;;;;6.73;6.03;;;;;;;;;;5021887;28;20236;-76
2023/01/22 10:52:43;;;;;;;6.37;5.53;;;;;;;;;;5028793;28;20179;-76
2023/01/22 10:55:20;;;;;;;7.83;6.63;;;;;;;;;;5028312;28;20210;-76
2023/01/22 10:57:50;;;;;;;7.13;6.30;;;;;;;;;;5028227;28;20507;-76
2023/01/22 11:00:16;;;;;;;7.53;6.43;;;;;;;;;;5026554;28;20323;-76
2023/01/22 11:02:43;;;;;;;7.87;6.67;;;;;;;;;;5012818;28;20257;-76
2023/01/22 11:05:17;;;;;;;7.37;6.57;;;;;;;;;;5008536;28;20195;-76
2023/01/22 11:07:44;;;;;;;8.40;7.33;;;;;;;;;;5021379;28;20553;-75
2023/01/22 11:10:25;;;;;;;8.47;6.07;;;;;;;;;;5006124;28;20182;-79
2023/01/22 11:12:56;;;;;;;6.47;5.87;;;;;;;;;;5023908;28;20189;-76
2023/01/22 11:15:38;;;;;;;7.00;6.20;;;;;;;;;;5024904;28;20210;-75
2023/01/22 11:18:05;;;;;;;8.80;6.33;;;;;;;;;;5024617;28;20223;-76
2023/01/22 11:20:45;;;;;;;7.20;6.50;;;;;;;;;;5026789;28;20728;-76
2023/01/22 11:23:23;;;;;;;6.90;5.70;;;;;;;;;;5014936;28;20197;-76
2023/01/22 11:26:05;;;;;;;6.20;5.60;;;;;;;;;;5026211;28;20233;-76
2023/01/22 11:28:40;;;;;;;6.70;6.00;;;;;;;;;;5025313;28;20198;-76
2023/01/22 11:31:17;;;;;;;6.87;6.17;;;;;;;;;;5027620;28;20248;-76
2023/01/22 11:33:49;;;;;;;9.93;7.50;;;;;;;;;;5027956;28;20206;-75
2023/01/22 11:36:31;;;;;;;7.50;6.67;;;;;;;;;;5010262;28;20246;-76
2023/01/22 11:39:02;;;;;;;7.83;7.03;;;;;;;;;;5028279;28;20291;-76
2023/01/22 11:41:34;;;;;;;8.03;6.43;;;;;;;;;;5027447;28;20269;-76
2023/01/22 11:44:15;;;;;;;6.80;6.10;;;;;;;;;;5025003;28;20269;-76
2023/01/22 11:46:49;;;;;;;8.60;6.80;;;;;;;;;;5014116;28;20253;-76
2023/01/22 11:49:29;;;;;;;8.87;7.33;;;;;;;;;;5008010;28;20175;-76
2023/01/22 11:51:55;;;;;;;9.10;7.47;;;;;;;;;;5006409;28;20185;-76
2023/01/22 11:54:24;;;;;;;10.07;8.47;;;;;;;;;;5011272;28;20583;-75
2023/01/22 11:57:09;;;;;;;10.00;7.50;;;;;;;;;;5000355;28;20202;-75
2023/01/22 11:59:35;;;;;;;8.43;6.80;;;;;;;;;;5026018;28;20182;-75
2023/01/22 12:02:05;;;;;;;9.47;7.33;;;;;;;;;;5016544;28;20409;-76
2023/01/22 12:04:31;;;;;;;13.17;9.40;;;;;;;;;;5013792;28;20230;-75
2023/01/22 12:07:10;;;;;;;14.43;10.23;;;;;;;;;;5022672;28;20269;-76
2023/01/22 12:09:45;;;;;;;11.93;8.70;;;;;;;;;;5026877;28;20197;-75
2023/01/22 12:12:25;;;;;;;11.50;7.97;;;;;;;;;;5026510;28;20683;-76
2023/01/22 12:14:57;;;;;;;9.93;7.53;;;;;;;;;;5025703;28;20202;-75
2023/01/22 12:17:32;;;;;;;10.27;7.63;;;;;;;;;;5010704;28;20179;-76
2023/01/22 12:19:58;;;;;;;10.47;7.37;;;;;;;;;;5007590;28;20657;-75
2023/01/22 12:22:24;;;;;;;8.87;7.40;;;;;;;;;;5010630;28;20228;-75
2023/01/22 12:24:50;;;;;;;8.53;7.17;;;;;;;;;;5017364;28;20222;-75
2023/01/22 12:27:23;;;;;;;10.63;7.63;;;;;;;;;;5025561;28;20571;-75
2023/01/22 12:30:06;;;;;;;9.10;7.00;;;;;;;;;;5022656;28;20175;-75
2023/01/22 12:32:35;;;;;;;9.37;6.93;;;;;;;;;;5020226;28;20597;-77
2023/01/22 12:35:18;;;;;;;7.80;6.97;;;;;;;;;;5023208;28;20328;-77
2023/01/22 12:37:47;;;;;;;10.20;7.37;;;;;;;;;;5018962;28;20178;-77
2023/01/22 12:40:22;;;;;;;10.07;7.93;;;;;;;;;;5014834;28;20772;-77
2023/01/22 12:42:51;;;;;;;8.90;6.87;;;;;;;;;;5023920;28;20185;-77
2023/01/22 12:45:22;;;;;;;8.07;6.83;;;;;;;;;;5025977;28;20277;-79
2023/01/22 12:47:53;;;;;;;8.00;6.53;;;;;;;;;;4993221;28;20181;-79
2023/01/22 12:50:21;;;;;;;8.30;7.43;;;;;;;;;;5027242;28;20175;-77
2023/01/22 12:53:00;;;;;;;8.13;6.23;;;;;;;;;;5028283;28;20178;-76
2023/01/22 12:55:31;;;;;;;7.97;6.13;;;;;;;;;;5026821;28;20221;-77
2023/01/22 12:57:58;;;;;;;9.43;6.77;;;;;;;;;;5019798;28;20292;-77
2023/01/22 13:00:24;;;;;;;7.93;7.10;;;;;;;;;;5004387;28;20191;-76
2023/01/22 13:02:50;;;;;;;9.93;7.17;;;;;;;;;;5025400;28;20187;-76
2023/01/22 13:05:22;;;;;;;8.53;7.03;;;;;;;;;;5022657;28;20217;-76
2023/01/22 13:07:50;;;;;;;9.30;7.23;;;;;;;;;;5025905;28;20178;-77
2023/01/22 13:10:20;;;;;;;8.83;6.97;;;;;;;;;;5010456;28;20700;-75
2023/01/22 13:12:48;;;;;;;9.43;7.57;;;;;;;;;;5026309;28;20171;-75
2023/01/22 13:15:23;;;;;;;8.40;7.50;;;;;;;;;;5018802;28;20289;-77
2023/01/22 13:17:55;;;;;;;10.63;7.80;;;;;;;;;;5017602;28;20218;-76
2023/01/22 13:20:22;;;;;;;8.53;7.23;;;;;;;;;;5023344;28;20191;-76
2023/01/22 13:22:48;;;;;;;9.43;7.53;;;;;;;;;;5018967;28;20183;-75
2023/01/22 13:25:25;;;;;;;8.60;7.40;;;;;;;;;;5021271;28;20241;-74
2023/01/22 13:27:51;;;;;;;7.80;7.00;;;;;;;;;;5017480;28;21233;-75
2023/01/22 13:30:18;;;;;;;8.50;6.93;;;;;;;;;;5027266;28;20204;-75
2023/01/22 13:32:44;;;;;;;8.73;7.13;;;;;;;;;;5022237;28;20698;-75
2023/01/22 13:35:14;;;;;;;9.67;7.67;;;;;;;;;;5021908;28;20218;-75
2023/01/22 13:37:43;;;;;;;8.93;7.10;;;;;;;;;;5017588;28;20171;-75
2023/01/22 13:40:12;;;;;;;10.50;8.00;;;;;;;;;;5024288;28;20360;-75
2023/01/22 13:42:41;;;;;;;9.70;7.87;;;;;;;;;;5024294;28;20186;-75
2023/01/22 13:45:13;;;;;;;7.57;6.77;;;;;;;;;;5019747;28;20219;-75
2023/01/22 13:47:40;;;;;;;9.60;7.73;;;;;;;;;;5021834;28;20218;-77
2023/01/22 13:50:06;;;;;;;10.53;7.50;;;;;;;;;;5026010;28;20209;-74
2023/01/22 13:52:33;;;;;;;9.10;7.57;;;;;;;;;;5014647;28;20566;-75
2023/01/22 13:55:04;;;;;;;8.80;7.47;;;;;;;;;;5020086;28;20221;-75
2023/01/22 13:57:30;;;;;;;8.63;7.47;;;;;;;;;;5024390;28;20197;-74
2023/01/22 13:59:57;;;;;;;7.90;6.50;;;;;;;;;;5021281;28;20224;-75
2023/01/22 14:02:27;;;;;;;9.17;7.60;;;;;;;;;;5011687;28;20225;-74
2023/01/22 14:04:53;;;;;;;9.43;8.03;;;;;;;;;;5018923;28;20211;-75
2023/01/22 14:07:26;;;;;;;9.43;7.33;;;;;;;;;;5017626;28;20179;-75
2023/01/22 14:09:53;;;;;;;8.60;7.57;;;;;;;;;;5016942;28;20182;-74
2023/01/22 14:12:20;;;;;;;9.47;7.63;;;;;;;;;;5026525;28;20707;-75
2023/01/22 14:14:47;;;;;;;8.97;7.33;;;;;;;;;;5025151;28;20236;-74
2023/01/22 14:17:30;;;;;;;9.07;7.67;;;;;;;;;;5014294;28;20642;-75
2023/01/22 14:19:56;;;;;;;8.10;6.87;;;;;;;;;;5021858;28;20245;-74
2023/01/22 14:22:23;;;;;;;11.17;8.53;;;;;;;;;;5022314;28;20189;-75
2023/01/22 14:24:51;;;;;;;8.47;7.57;;;;;;;;;;5026293;28;20989;-74
2023/01/22 14:27:18;;;;;;;9.47;8.03;;;;;;;;;;5020063;28;20193;-75
2023/01/22 14:29:44;;;;;;;9.87;7.87;;;;;;;;;;5026105;28;20728;-73
2023/01/22 14:32:10;;;;;;;8.37;7.20;;;;;;;;;;5022610;28;20270;-74
2023/01/22 14:34:36;;;;;;;9.13;6.90;;;;;;;;;;5027142;28;20238;-74
2023/01/22 14:37:03;;;;;;;8.50;7.13;;;;;;;;;;5017985;28;20187;-74
2023/01/22 14:39:35;;;;;;;7.23;6.40;;;;;;;;;;5021706;28;20191;-74
2023/01/22 14:42:01;;;;;;;11.47;8.13;;;;;;;;;;5016947;28;20175;-77
2023/01/22 14:44:28;;;;;;;17.37;9.47;;;;;;;;;;5023038;28;20201;-76
2023/01/22 14:46:54;;;;;;;20.23;11.50;;;;;;;;;;5020031;28;20344;-77
2023/01/22 14:49:20;;;;;;;19.13;10.77;;;;;;;;;;5014084;28;20229;-77
2023/01/22 14:51:46;;;;;;;18.33;11.33;;;;;;;;;;5012232;28;20171;-78